createdAt,value
2018-07-14T00:04:03.792Z,99.90
2018-07-14T00:06:33.964Z,99.90
2018-07-14T00:09:03.344Z,99.90
2018-07-14T00:11:33.344Z,99.90
2018-07-14T00:14:03.104Z,99.90
2018-07-14T00:16:32.525Z,99.90
2018-07-14T00:19:02.044Z,99.90
2018-07-14T00:21:31.663Z,99.90
2018-07-14T00:24:01.225Z,99.90
2018-07-14T00:26:30.664Z,99.90
2018-07-14T00:29:00.483Z,99.90
2018-07-14T00:31:29.881Z,99.90
2018-07-14T00:38:57.221Z,99.90
2018-07-14T00:41:26.880Z,99.90
2018-07-14T00:43:56.741Z,99.90
2018-07-14T00:46:26.381Z,99.90
2018-07-14T00:48:56.640Z,99.90
2018-07-14T00:51:26.381Z,99.90
2018-07-14T00:53:55.781Z,99.90
2018-07-14T00:56:25.821Z,99.90
2018-07-14T00:58:56.044Z,99.90
2018-07-14T01:01:25.497Z,99.90
2018-07-14T01:03:55.380Z,99.90
2018-07-14T01:06:25.645Z,99.90
2018-07-14T01:08:55.017Z,99.90
2018-07-14T01:13:56.137Z,99.90
2018-07-14T01:16:29.796Z,99.90
2018-07-14T01:18:59.237Z,99.90
2018-07-14T01:21:28.976Z,99.90
2018-07-14T01:23:58.757Z,99.90
2018-07-14T01:26:28.717Z,99.90
2018-07-14T01:28:58.796Z,99.90
2018-07-14T01:31:28.996Z,99.90
2018-07-14T01:33:58.696Z,99.90
2018-07-14T01:36:28.296Z,99.90
2018-07-14T01:38:58.056Z,99.90
2018-07-14T01:41:27.579Z,99.90
2018-07-14T01:43:56.936Z,99.90
2018-07-14T01:46:26.516Z,99.90
2018-07-14T01:48:56.236Z,99.90
2018-07-14T01:51:25.976Z,99.90
2018-07-14T01:53:55.916Z,99.90
2018-07-14T01:58:54.736Z,99.90
2018-07-14T02:01:24.478Z,99.90
2018-07-14T02:03:53.839Z,99.90
2018-07-14T02:06:25.357Z,99.90
2018-07-14T02:08:55.057Z,99.90
2018-07-14T02:11:24.635Z,99.90
2018-07-14T02:13:54.544Z,99.90
2018-07-14T02:16:24.238Z,99.90
2018-07-14T02:21:22.596Z,99.90
2018-07-14T02:23:52.455Z,99.90
2018-07-14T02:26:22.335Z,99.90
2018-07-14T02:31:21.075Z,99.90
2018-07-14T02:33:50.955Z,99.90
2018-07-14T02:36:21.156Z,99.90
2018-07-14T02:38:50.494Z,99.90
2018-07-14T02:41:20.495Z,99.90
2018-07-14T02:43:50.495Z,99.90
2018-07-14T02:46:19.735Z,99.90
2018-07-14T02:48:49.456Z,99.90
2018-07-14T02:51:18.835Z,99.90
2018-07-14T02:53:48.834Z,99.90
2018-07-14T02:56:18.478Z,99.90
2018-07-14T02:58:48.575Z,99.90
2018-07-14T03:01:18.279Z,99.90
2018-07-14T03:03:48.197Z,99.90
2018-07-14T03:06:17.797Z,99.90
2018-07-14T03:08:47.398Z,99.90
2018-07-14T03:11:17.199Z,99.90
2018-07-14T03:13:46.599Z,99.90
2018-07-14T03:16:16.459Z,99.90
2018-07-14T03:18:46.218Z,99.90
2018-07-14T03:21:15.807Z,99.90
2018-07-14T03:23:45.558Z,99.90
2018-07-14T03:26:15.118Z,99.90
2018-07-14T03:31:14.366Z,99.90
2018-07-14T03:33:43.818Z,99.90
2018-07-14T03:36:13.298Z,99.90
2018-07-14T03:38:42.981Z,99.90
2018-07-14T03:41:13.877Z,99.90
2018-07-14T03:43:43.320Z,99.90
2018-07-14T03:46:13.238Z,99.90
2018-07-14T03:48:42.919Z,99.90
2018-07-14T03:51:12.216Z,99.90
2018-07-14T03:53:41.676Z,99.90
2018-07-14T03:56:11.237Z,99.90
2018-07-14T03:58:40.897Z,99.90
2018-07-14T04:01:10.199Z,99.90
2018-07-14T04:03:39.777Z,99.90
2018-07-14T04:06:10.336Z,99.90
2018-07-14T04:08:40.041Z,99.90
2018-07-14T04:11:09.419Z,99.90
2018-07-14T04:13:39.479Z,99.90
2018-07-14T04:16:08.978Z,99.90
2018-07-14T04:18:38.796Z,99.90
2018-07-14T04:21:08.717Z,99.20
2018-07-14T04:23:38.472Z,98.20
2018-07-14T04:26:08.357Z,97.40
2018-07-14T04:28:37.757Z,96.60
2018-07-14T04:33:39.176Z,94.80
2018-07-14T04:36:08.676Z,93.90
2018-07-14T04:38:38.377Z,93.00
2018-07-14T04:41:08.977Z,91.50
2018-07-14T04:43:38.477Z,90.40
2018-07-14T04:46:08.136Z,88.90
2018-07-14T04:48:37.658Z,86.40
2018-07-14T04:51:07.485Z,85.00
2018-07-14T04:53:37.868Z,84.00
2018-07-14T04:56:07.456Z,82.90
2018-07-14T04:58:36.797Z,82.10
2018-07-14T05:01:06.279Z,81.10
2018-07-14T05:03:35.539Z,81.20
2018-07-14T05:06:05.081Z,81.10
2018-07-14T05:08:34.619Z,81.00
2018-07-14T05:11:03.960Z,80.70
2018-07-14T05:13:33.462Z,80.80
2018-07-14T05:16:02.996Z,81.60
2018-07-14T05:18:33.537Z,82.20
2018-07-14T05:21:02.838Z,81.90
2018-07-14T05:23:32.516Z,83.80
2018-07-14T05:26:02.136Z,84.20
2018-07-14T05:28:36.726Z,86.40
2018-07-14T05:31:06.177Z,88.10
2018-07-14T05:33:36.516Z,87.80
2018-07-14T05:36:11.838Z,87.70
2018-07-14T05:38:41.395Z,87.40
2018-07-14T05:41:11.256Z,87.90
2018-07-14T05:43:40.716Z,86.70
2018-07-14T05:46:10.036Z,86.70
2018-07-14T05:48:39.976Z,87.10
2018-07-14T05:51:09.475Z,86.40
2018-07-14T05:53:39.236Z,89.20
2018-07-14T05:58:38.116Z,88.70
2018-07-14T06:01:07.688Z,86.90
2018-07-14T06:03:37.178Z,88.80
2018-07-14T06:06:07.319Z,88.30
2018-07-14T06:08:36.838Z,85.80
2018-07-14T06:11:06.638Z,87.60
2018-07-14T06:13:35.959Z,85.60
2018-07-14T06:16:05.259Z,84.90
2018-07-14T06:21:03.922Z,84.80
2018-07-14T06:23:33.255Z,83.30
2018-07-14T06:26:02.775Z,82.40
2018-07-14T06:28:32.419Z,82.20
2018-07-14T06:31:01.935Z,83.30
2018-07-14T06:33:31.656Z,84.80
2018-07-14T06:36:01.318Z,84.50
2018-07-14T06:38:30.854Z,81.70
2018-07-14T06:41:00.876Z,82.20
2018-07-14T06:43:30.214Z,80.50
2018-07-14T06:46:00.035Z,81.90
2018-07-14T06:48:29.797Z,83.60
2018-07-14T06:50:59.435Z,80.60
2018-07-14T06:53:29.735Z,80.90
2018-07-14T07:03:26.427Z,81.40
2018-07-14T07:05:55.876Z,79.20
2018-07-14T07:08:25.514Z,78.40
2018-07-14T07:10:55.335Z,74.20
2018-07-14T07:13:29.055Z,79.20
2018-07-14T07:15:58.775Z,78.10
2018-07-14T07:18:28.457Z,79.00
2018-07-14T07:20:59.117Z,76.50
2018-07-14T07:23:37.643Z,75.60
2018-07-14T07:26:08.044Z,74.10
2018-07-14T07:28:37.867Z,74.70
2018-07-14T07:31:07.856Z,77.60
2018-07-14T07:33:37.996Z,76.70
2018-07-14T07:36:07.395Z,77.20
2018-07-14T07:38:36.716Z,75.40
2018-07-14T07:41:05.996Z,77.00
2018-07-14T07:43:35.456Z,78.40
2018-07-14T07:46:06.196Z,75.30
2018-07-14T07:48:35.655Z,78.40
2018-07-14T07:51:04.856Z,76.70
2018-07-14T07:53:38.916Z,73.90
2018-07-14T07:58:41.435Z,71.10
2018-07-14T08:01:14.507Z,72.00
2018-07-14T08:03:43.462Z,76.10
2018-07-14T08:06:13.068Z,74.70
2018-07-14T08:09:07.572Z,74.10
2018-07-14T08:11:59.507Z,69.60
2018-07-14T08:14:29.565Z,67.30
2018-07-14T08:17:01.505Z,65.20
2018-07-14T08:19:30.845Z,68.30
2018-07-14T08:22:00.405Z,61.80
2018-07-14T08:24:30.028Z,60.90
2018-07-14T08:27:00.138Z,62.60
2018-07-14T08:29:29.559Z,62.80
2018-07-14T08:31:59.139Z,59.70
2018-07-14T08:36:57.372Z,59.40
2018-07-14T08:39:27.299Z,58.80
2018-07-14T08:41:56.758Z,60.20
2018-07-14T08:44:25.977Z,61.60
2018-07-14T08:46:55.339Z,59.80
2018-07-14T08:49:25.158Z,59.50
2018-07-14T08:51:54.677Z,57.80
2018-07-14T08:54:24.337Z,56.30
2018-07-14T08:56:53.738Z,53.40
2018-07-14T08:59:23.466Z,57.00
2018-07-14T09:01:53.314Z,59.10
2018-07-14T09:04:22.857Z,56.80
2018-07-14T09:06:52.976Z,54.70
2018-07-14T09:09:22.955Z,55.40
2018-07-14T09:14:22.215Z,50.80
2018-07-14T09:16:51.541Z,52.10
2018-07-14T09:19:21.219Z,48.90
2018-07-14T09:21:50.719Z,50.10
2018-07-14T09:24:20.219Z,52.30
2018-07-14T09:26:50.599Z,50.40
2018-07-14T09:29:19.839Z,48.40
2018-07-14T09:31:49.359Z,47.90
2018-07-14T09:34:20.665Z,49.30
2018-07-14T09:36:50.285Z,49.00
2018-07-14T09:39:19.919Z,46.90
2018-07-14T09:41:49.239Z,48.40
2018-07-14T09:44:19.241Z,50.50
2018-07-14T09:46:49.500Z,45.30
2018-07-14T09:49:19.390Z,49.30
2018-07-14T09:51:49.301Z,50.70
2018-07-14T09:54:18.960Z,46.80
2018-07-14T09:56:48.659Z,45.60
2018-07-14T09:59:18.119Z,47.20
2018-07-14T10:01:47.881Z,47.80
2018-07-14T10:04:17.201Z,48.50
2018-07-14T10:06:52.180Z,46.90
2018-07-14T10:09:21.740Z,45.70
2018-07-14T10:11:51.582Z,47.70
2018-07-14T10:14:21.161Z,45.60
2018-07-14T10:16:50.400Z,43.20
2018-07-14T10:19:19.861Z,44.80
2018-07-14T10:21:49.701Z,42.50
2018-07-14T10:24:19.881Z,44.90
2018-07-14T10:26:49.281Z,46.70
2018-07-14T10:31:48.320Z,44.70
2018-07-14T10:36:48.361Z,46.00
2018-07-14T10:39:17.718Z,44.80
2018-07-14T10:41:47.359Z,43.30
2018-07-14T10:44:17.298Z,47.10
2018-07-14T10:46:46.984Z,43.60
2018-07-14T10:49:16.539Z,43.30
2018-07-14T10:51:46.797Z,43.30
2018-07-14T10:54:16.778Z,45.90
2018-07-14T10:56:46.276Z,45.30
2018-07-14T10:59:16.355Z,44.80
2018-07-14T11:04:15.615Z,45.60
2018-07-14T11:06:45.394Z,44.60
2018-07-14T11:09:14.994Z,43.30
2018-07-14T11:11:44.457Z,43.30
2018-07-14T11:14:13.794Z,43.40
2018-07-14T11:16:43.494Z,44.30
2018-07-14T11:19:14.158Z,46.40
2018-07-14T11:24:13.117Z,48.40
2018-07-14T11:26:42.815Z,44.40
2018-07-14T11:29:12.465Z,43.90
2018-07-14T11:31:42.114Z,44.30
2018-07-14T11:36:41.234Z,47.00
2018-07-14T11:39:10.796Z,46.20
2018-07-14T11:41:40.438Z,45.00
2018-07-14T11:44:10.077Z,45.50
2018-07-14T11:46:39.620Z,43.40
2018-07-14T11:49:09.178Z,44.80
2018-07-14T11:51:38.936Z,44.20
2018-07-14T11:56:41.958Z,45.10
2018-07-14T11:59:15.902Z,48.50
2018-07-14T12:01:46.916Z,45.70
2018-07-14T12:04:16.719Z,48.20
2018-07-14T12:06:46.416Z,48.50
2018-07-14T12:09:16.177Z,45.20
2018-07-14T12:11:47.278Z,42.00
2018-07-14T12:14:16.797Z,43.00
2018-07-14T12:16:46.416Z,42.80
2018-07-14T12:19:15.858Z,44.00
2018-07-14T12:24:16.216Z,42.60
2018-07-14T12:26:45.938Z,43.70
2018-07-14T12:29:19.816Z,43.50
2018-07-14T12:31:49.435Z,44.80
2018-07-14T12:34:18.795Z,44.40
2018-07-14T12:36:48.496Z,45.50
2018-07-14T12:39:22.378Z,44.00
2018-07-14T12:41:52.135Z,43.40
2018-07-14T12:44:26.135Z,43.40
2018-07-14T12:46:55.495Z,41.70
2018-07-14T12:49:25.009Z,41.50
2018-07-14T12:51:54.715Z,42.40
2018-07-14T12:54:24.375Z,45.90
2018-07-14T12:56:58.137Z,42.60
2018-07-14T12:59:27.995Z,41.70
2018-07-14T13:01:57.296Z,42.40
2018-07-14T13:04:26.519Z,42.50
2018-07-14T13:06:56.336Z,43.60
2018-07-14T13:09:25.736Z,47.10
2018-07-14T13:11:55.496Z,46.30
2018-07-14T13:14:24.958Z,43.50
2018-07-14T13:16:54.956Z,44.80
2018-07-14T13:19:24.537Z,47.30
2018-07-14T13:21:54.056Z,44.70
2018-07-14T13:24:23.896Z,42.10
2018-07-14T13:26:53.516Z,43.20
2018-07-14T13:29:22.940Z,44.40
2018-07-14T13:31:52.618Z,45.60
2018-07-14T13:36:51.564Z,50.20
2018-07-14T13:39:22.156Z,51.90
2018-07-14T13:41:51.717Z,52.80
2018-07-14T13:44:21.118Z,54.70
2018-07-14T13:46:51.878Z,55.20
2018-07-14T13:51:55.136Z,57.90
2018-07-14T13:54:24.457Z,58.40
2018-07-14T13:56:55.076Z,59.40
2018-07-14T13:59:24.298Z,59.90
2018-07-14T14:01:54.158Z,61.80
2018-07-14T14:04:24.155Z,61.30
2018-07-14T14:06:53.798Z,62.60
2018-07-14T14:11:53.295Z,62.60
2018-07-14T14:14:22.756Z,64.20
2018-07-14T14:16:57.115Z,64.90
2018-07-14T14:21:57.697Z,66.30
2018-07-14T14:24:27.576Z,67.20
2018-07-14T14:26:56.916Z,66.70
2018-07-14T14:29:26.414Z,67.10
2018-07-14T14:31:56.195Z,67.70
2018-07-14T14:34:25.915Z,67.50
2018-07-14T14:36:55.761Z,67.30
2018-07-14T14:39:25.475Z,66.00
2018-07-14T14:41:55.475Z,67.40
2018-07-14T14:44:29.795Z,67.90
2018-07-14T14:46:59.659Z,67.50
2018-07-14T14:49:29.639Z,68.30
2018-07-14T14:51:59.036Z,68.40
2018-07-14T14:54:32.795Z,66.60
2018-07-14T14:57:02.336Z,65.30
2018-07-14T14:59:36.075Z,64.80
2018-07-14T15:02:06.599Z,64.70
2018-07-14T15:04:36.897Z,65.00
2018-07-14T15:07:06.921Z,64.70
2018-07-14T15:12:06.460Z,64.90
2018-07-14T15:14:36.560Z,64.90
2018-07-14T15:17:06.381Z,66.40
2018-07-14T15:19:36.559Z,65.10
2018-07-14T15:22:05.987Z,67.10
2018-07-14T15:24:35.901Z,66.90
2018-07-14T15:27:05.658Z,67.40
2018-07-14T15:29:35.458Z,68.00
2018-07-14T15:32:04.879Z,68.10
2018-07-14T15:34:34.678Z,69.30
2018-07-14T15:37:03.938Z,67.00
2018-07-14T15:39:33.598Z,69.50
2018-07-14T15:42:07.319Z,69.50
2018-07-14T15:44:37.522Z,67.20
2018-07-14T15:47:08.598Z,67.00
2018-07-14T15:49:38.240Z,67.10
2018-07-14T15:52:08.037Z,67.60
2018-07-14T15:54:38.417Z,67.80
2018-07-14T15:57:09.078Z,68.20
2018-07-14T15:59:38.456Z,67.10
2018-07-14T16:02:08.637Z,68.30
2018-07-14T16:04:38.355Z,67.40
2018-07-14T16:07:07.996Z,67.10
2018-07-14T16:09:37.515Z,66.60
2018-07-14T16:12:07.318Z,66.40
2018-07-14T16:14:36.838Z,67.10
2018-07-14T16:17:06.678Z,66.50
2018-07-14T16:19:36.578Z,66.20
2018-07-14T16:22:07.718Z,67.20
2018-07-14T16:24:37.376Z,67.80
2018-07-14T16:27:06.817Z,66.70
2018-07-14T16:29:36.157Z,67.10
2018-07-14T16:32:10.516Z,67.20
2018-07-14T16:34:39.956Z,67.80
2018-07-14T16:37:10.659Z,68.00
2018-07-14T16:39:40.142Z,65.80
2018-07-14T16:42:10.038Z,65.30
2018-07-14T16:44:39.924Z,66.70
2018-07-14T16:49:44.226Z,67.30
2018-07-14T16:52:13.796Z,67.40
2018-07-14T16:54:43.555Z,67.50
2018-07-14T16:57:17.517Z,68.60
2018-07-14T16:59:48.895Z,68.90
2018-07-14T17:02:22.420Z,70.20
2018-07-14T17:04:52.560Z,72.40
2018-07-14T17:07:22.521Z,74.00
2018-07-14T17:09:52.361Z,75.10
2018-07-14T17:12:23.088Z,75.20
2018-07-14T17:14:53.358Z,75.30
2018-07-14T17:17:23.720Z,75.70
2018-07-14T17:22:22.760Z,76.00
2018-07-14T17:27:21.641Z,74.40
2018-07-14T17:29:51.719Z,75.40
2018-07-14T17:32:22.121Z,76.60
2018-07-14T17:34:51.979Z,75.40
2018-07-14T17:37:21.599Z,75.00
2018-07-14T17:39:51.339Z,77.00
2018-07-14T17:42:21.158Z,79.70
2018-07-14T17:44:51.181Z,82.10
2018-07-14T17:47:21.599Z,83.20
2018-07-14T17:49:51.799Z,84.50
2018-07-14T17:52:21.619Z,84.60
2018-07-14T17:57:20.721Z,87.00
2018-07-14T17:59:51.014Z,89.90
2018-07-14T18:02:21.516Z,90.00
2018-07-14T18:04:51.569Z,90.60
2018-07-14T18:07:21.289Z,91.10
2018-07-14T18:09:51.008Z,92.00
2018-07-14T18:12:21.168Z,92.30
2018-07-14T18:14:50.999Z,92.50
2018-07-14T18:17:20.828Z,92.90
2018-07-14T18:19:50.528Z,93.40
2018-07-14T18:22:20.452Z,94.40
2018-07-14T18:27:20.048Z,95.90
2018-07-14T18:29:49.989Z,96.80
2018-07-14T18:32:19.888Z,98.20
2018-07-14T18:34:49.476Z,99.90
2018-07-14T18:37:19.908Z,99.90
2018-07-14T18:39:50.628Z,99.90
2018-07-14T18:42:20.748Z,99.90
2018-07-14T18:44:50.608Z,99.90
2018-07-14T18:47:20.693Z,99.90
2018-07-14T18:49:50.448Z,99.90
2018-07-14T18:54:50.628Z,99.90
2018-07-14T18:57:20.369Z,99.90
2018-07-14T18:59:50.487Z,99.90
2018-07-14T19:02:20.546Z,99.90
2018-07-14T19:04:50.290Z,99.90
2018-07-14T19:07:19.974Z,99.90
2018-07-14T19:09:49.828Z,99.90
2018-07-14T19:12:20.326Z,99.90
2018-07-14T19:14:50.673Z,99.90
2018-07-14T19:17:20.406Z,99.90
2018-07-14T19:19:50.087Z,99.90
2018-07-14T19:22:20.866Z,99.90
2018-07-14T19:24:51.166Z,99.90
2018-07-14T19:27:21.167Z,99.90
2018-07-14T19:32:19.886Z,99.90
2018-07-14T19:34:51.547Z,99.90
2018-07-14T19:37:21.518Z,99.90
2018-07-14T19:39:51.719Z,99.90
2018-07-14T19:42:21.327Z,99.90
2018-07-14T19:44:52.586Z,99.90
2018-07-14T19:47:22.360Z,99.90
2018-07-14T19:49:52.342Z,99.90
2018-07-14T19:52:22.063Z,99.90
2018-07-14T19:54:51.929Z,99.90
2018-07-14T19:57:22.196Z,99.90
2018-07-14T19:59:52.079Z,99.90
2018-07-14T20:02:23.409Z,99.90
2018-07-14T20:04:53.043Z,99.90
2018-07-14T20:07:22.599Z,99.90
2018-07-14T20:09:52.740Z,99.90
2018-07-14T20:12:22.280Z,99.90
2018-07-14T20:14:51.883Z,99.90
2018-07-14T20:17:21.439Z,99.90
2018-07-14T20:19:51.828Z,99.90
2018-07-14T20:22:21.660Z,99.90
2018-07-14T20:24:51.820Z,99.90
2018-07-14T20:27:22.718Z,99.90
2018-07-14T20:29:52.761Z,99.90
2018-07-14T20:32:22.703Z,99.90
2018-07-14T20:34:52.626Z,99.90
2018-07-14T20:37:22.724Z,99.90
2018-07-14T20:39:52.424Z,99.90
2018-07-14T20:42:22.783Z,99.90
2018-07-14T20:44:52.643Z,99.90
2018-07-14T20:47:23.265Z,99.90
2018-07-14T20:49:53.323Z,99.90
2018-07-14T20:52:23.099Z,99.90
2018-07-14T20:54:54.486Z,99.90
2018-07-14T20:57:24.551Z,99.90
2018-07-14T20:59:54.624Z,99.90
2018-07-14T21:04:54.401Z,99.90
2018-07-14T21:07:29.020Z,99.90
2018-07-14T21:09:58.660Z,99.90
2018-07-14T21:12:28.590Z,99.90
2018-07-14T21:14:58.622Z,99.90
2018-07-14T21:17:29.840Z,99.90
2018-07-14T21:19:59.601Z,99.90
2018-07-14T21:22:29.579Z,99.90
2018-07-14T21:25:00.819Z,99.90
2018-07-14T21:30:04.921Z,99.90
2018-07-14T21:32:34.920Z,99.90
2018-07-14T21:35:04.643Z,99.90
2018-07-14T21:37:34.638Z,99.90
2018-07-14T21:40:05.433Z,99.90
2018-07-14T21:42:35.541Z,99.90
2018-07-14T21:45:05.759Z,99.90
2018-07-14T21:47:35.939Z,99.90
2018-07-14T21:50:05.820Z,99.90
2018-07-14T21:52:36.299Z,99.90
2018-07-14T21:55:06.503Z,99.90
2018-07-14T21:57:36.482Z,99.90
2018-07-14T22:00:08.307Z,99.90
2018-07-14T22:05:07.146Z,99.90
2018-07-14T22:07:36.969Z,99.90
2018-07-14T22:10:06.685Z,99.90
2018-07-14T22:12:36.886Z,99.90
2018-07-14T22:15:06.964Z,99.90
2018-07-14T22:17:36.763Z,99.90
2018-07-14T22:20:06.724Z,99.90
2018-07-14T22:22:36.863Z,99.90
2018-07-14T22:25:06.643Z,99.90
2018-07-14T22:27:36.684Z,99.90
2018-07-14T22:30:06.646Z,99.90
2018-07-14T22:32:36.821Z,99.90
2018-07-14T22:35:06.920Z,99.90
2018-07-14T22:37:37.421Z,99.90
2018-07-14T22:40:08.099Z,99.90
2018-07-14T22:42:38.197Z,99.90
2018-07-14T22:45:07.999Z,99.90
2018-07-14T22:47:38.259Z,99.90
2018-07-14T22:50:08.578Z,99.90
2018-07-14T22:52:39.920Z,99.90
2018-07-14T22:55:09.800Z,99.90
2018-07-14T22:57:44.680Z,99.90
2018-07-14T23:00:18.356Z,99.90
2018-07-14T23:02:48.886Z,99.90
2018-07-14T23:05:19.341Z,99.90
2018-07-14T23:07:49.181Z,99.90
2018-07-14T23:10:18.966Z,99.90
2018-07-14T23:12:48.846Z,99.90
2018-07-14T23:15:18.759Z,99.90
2018-07-14T23:17:48.579Z,99.90
2018-07-14T23:20:19.259Z,99.90
2018-07-14T23:22:49.319Z,99.90
2018-07-14T23:25:19.119Z,99.90
2018-07-14T23:27:48.859Z,99.90
2018-07-14T23:30:18.819Z,99.90
2018-07-14T23:32:48.699Z,99.90
2018-07-14T23:35:18.840Z,99.90
2018-07-14T23:37:48.701Z,99.90
2018-07-14T23:40:18.938Z,99.90
2018-07-14T23:42:48.938Z,99.90
2018-07-14T23:45:19.399Z,99.90
2018-07-14T23:47:49.498Z,99.90
2018-07-14T23:50:19.818Z,99.90
2018-07-14T23:52:49.758Z,99.90
2018-07-14T23:55:19.698Z,99.90
2018-07-14T23:57:49.478Z,99.90
